Time;durP1;ratioP1;P1;durP2;ratioP2;P2;SDS_P1;SDS_P2;PMS_P1;PMS_P2;Temp;Humidity;BMP_temperature;BMP_pressure;BME280_temperature;BME280_humidity;BME280_pressure;Samples;Min_cycle;Max_cycle;Signal;HPM_P1;HPM_P2
2022/07/17 00:00:51;;;;;;;;;6.80;5.80;35.20;99.90;;;;;;5039492;28;8851;-61
2022/07/17 00:03:23;;;;;;;;;3.20;3.20;35.20;99.90;;;;;;5062392;28;8859;-63
2022/07/17 00:05:54;;;;;;;;;5.00;3.60;35.20;99.90;;;;;;5063231;28;8832;-62
2022/07/17 00:08:30;;;;;;;;;6.00;5.00;35.40;99.90;;;;;;5058973;28;9608;-62
2022/07/17 00:11:03;;;;;;;;;2.60;2.60;35.40;99.90;;;;;;5061589;28;9604;-62
2022/07/17 00:13:34;;;;;;;;;5.80;4.00;35.10;99.90;;;;;;5063868;28;9625;-62
2022/07/17 00:16:04;;;;;;;;;3.40;3.20;34.80;99.90;;;;;;5056875;28;8860;-61
2022/07/17 00:18:35;;;;;;;;;4.00;2.80;34.80;99.90;;;;;;5060920;28;8876;-62
2022/07/17 00:21:05;;;;;;;;;4.80;3.80;34.70;99.90;;;;;;5053714;28;8850;-61
2022/07/17 00:23:36;;;;;;;;;5.20;3.40;34.80;99.90;;;;;;5062419;28;8833;-62
2022/07/17 00:26:07;;;;;;;;;4.00;3.00;34.90;99.90;;;;;;5063443;28;8828;-60
2022/07/17 00:28:42;;;;;;;;;3.80;3.80;35.40;99.90;;;;;;5056433;28;8820;-62
2022/07/17 00:31:14;;;;;;;;;6.40;4.80;35.30;99.90;;;;;;5062630;28;8978;-63
2022/07/17 00:33:44;;;;;;;;;4.60;3.80;35.00;99.90;;;;;;5060958;28;8854;-63
2022/07/17 00:36:13;;;;;;;;;6.20;3.00;34.70;99.90;;;;;;5063495;28;8871;-62
2022/07/17 00:38:42;;;;;;;;;5.80;4.20;34.40;99.90;;;;;;5063776;28;8871;-62
2022/07/17 00:41:15;;;;;;;;;7.00;4.00;34.40;99.90;;;;;;5061886;28;8824;-62
2022/07/17 00:43:46;;;;;;;;;5.60;3.00;34.20;99.90;;;;;;5055991;28;8875;-63
2022/07/17 00:46:22;;;;;;;;;8.40;4.20;34.30;99.90;;;;;;5060406;28;8843;-62
2022/07/17 00:48:53;;;;;;;;;4.20;3.00;34.20;99.90;;;;;;5056588;28;8881;-68
2022/07/17 00:51:23;;;;;;;;;7.00;4.80;34.10;99.90;;;;;;5061816;28;9545;-63
2022/07/17 00:53:56;;;;;;;;;4.00;4.00;34.10;99.90;;;;;;5065212;28;8860;-63
2022/07/17 00:56:27;;;;;;;;;5.20;3.60;34.00;99.90;;;;;;5058460;28;8847;-61
2022/07/17 00:58:56;;;;;;;;;3.20;3.20;33.90;99.90;;;;;;5060671;28;8840;-61
2022/07/17 01:01:26;;;;;;;;;4.00;4.00;33.90;99.90;;;;;;5059385;28;9871;-62
2022/07/17 01:04:00;;;;;;;;;4.40;3.40;33.90;99.90;;;;;;5062556;28;8852;-61
2022/07/17 01:06:31;;;;;;;;;3.00;3.00;33.80;99.90;;;;;;5048766;28;9503;-62
2022/07/17 01:09:05;;;;;;;;;4.80;3.60;33.70;99.90;;;;;;5058680;28;9550;-62
2022/07/17 01:11:34;;;;;;;;;1.80;0.80;33.70;99.90;;;;;;5051309;28;8805;-63
2022/07/17 01:14:04;;;;;;;;;4.00;4.00;33.70;99.90;;;;;;5059727;28;8895;-62
2022/07/17 01:16:39;;;;;;;;;4.80;4.80;33.60;99.90;;;;;;5056428;28;8832;-61
2022/07/17 01:19:16;;;;;;;;;4.40;4.00;33.40;99.90;;;;;;5056970;28;8885;-60
2022/07/17 01:21:47;;;;;;;;;5.60;3.00;33.40;99.90;;;;;;5063340;28;8839;-62
2022/07/17 01:24:19;;;;;;;;;5.40;5.20;33.40;99.90;;;;;;5064140;28;8868;-62
2022/07/17 01:26:50;;;;;;;;;4.60;3.00;33.40;99.90;;;;;;5063066;28;9069;-62
2022/07/17 01:29:23;;;;;;;;;4.20;3.00;33.40;99.90;;;;;;5059825;28;8828;-63
2022/07/17 01:31:54;;;;;;;;;6.40;5.80;33.30;99.90;;;;;;5058944;28;8836;-61
2022/07/17 01:34:26;;;;;;;;;3.60;3.00;33.20;99.90;;;;;;5061415;28;9649;-61
2022/07/17 01:36:57;;;;;;;;;5.80;3.80;33.20;99.90;;;;;;5065571;28;9578;-62
2022/07/17 01:42:15;;;;;;;;;5.80;4.00;33.10;99.90;;;;;;5065061;28;8848;-60
2022/07/17 01:44:46;;;;;;;;;4.00;4.00;33.10;99.90;;;;;;5060816;28;8863;-61
2022/07/17 01:47:21;;;;;;;;;4.40;4.40;33.00;99.90;;;;;;5060496;28;8836;-63
2022/07/17 01:49:53;;;;;;;;;7.40;4.20;33.00;99.90;;;;;;5058018;28;8850;-62
2022/07/17 01:52:26;;;;;;;;;3.60;3.00;33.00;99.90;;;;;;5051763;28;8879;-63
2022/07/17 01:54:56;;;;;;;;;7.60;5.00;32.80;99.90;;;;;;5052992;28;8832;-63
2022/07/17 01:57:27;;;;;;;;;5.20;4.60;32.80;99.90;;;;;;5052249;28;9919;-60
2022/07/17 01:59:57;;;;;;;;;8.40;5.00;32.80;99.90;;;;;;5051587;28;8840;-62
2022/07/17 02:02:28;;;;;;;;;6.00;4.20;32.80;99.90;;;;;;5057267;28;9591;-62
2022/07/17 02:04:59;;;;;;;;;5.20;5.20;32.70;99.90;;;;;;5047163;28;8865;-62
2022/07/17 02:07:32;;;;;;;;;6.80;4.20;32.70;99.90;;;;;;5062046;28;8832;-63
2022/07/17 02:10:03;;;;;;;;;6.20;5.00;32.70;99.90;;;;;;5058480;28;8843;-62
2022/07/17 02:12:33;;;;;;;;;5.80;4.00;32.60;99.90;;;;;;5060957;28;8863;-62
2022/07/17 02:15:07;;;;;;;;;8.60;5.40;32.60;99.90;;;;;;5062984;28;8902;-62
2022/07/17 02:17:42;;;;;;;;;7.00;5.00;32.50;99.90;;;;;;5059584;28;8828;-61
2022/07/17 02:20:17;;;;;;;;;7.20;3.80;32.60;99.90;;;;;;5058181;28;8851;-62
2022/07/17 02:22:48;;;;;;;;;5.80;4.20;32.50;99.90;;;;;;5052355;28;8839;-62
2022/07/17 02:25:18;;;;;;;;;8.60;5.00;32.50;99.90;;;;;;5050070;28;8893;-63
2022/07/17 02:27:48;;;;;;;;;0.60;0.00;32.50;99.90;;;;;;5055293;28;8855;-64
2022/07/17 02:30:21;;;;;;;;;6.80;5.00;32.40;99.90;;;;;;5053743;28;8832;-62
2022/07/17 02:32:51;;;;;;;;;4.40;3.60;32.30;99.90;;;;;;5060269;28;8879;-61
2022/07/17 02:35:22;;;;;;;;;4.40;4.40;32.10;99.90;;;;;;5063671;28;8844;-60
2022/07/17 02:37:58;;;;;;;;;6.80;5.00;32.20;99.90;;;;;;5056989;28;8844;-62
2022/07/17 02:40:29;;;;;;;;;9.00;5.20;32.10;99.90;;;;;;5059530;28;8852;-62
2022/07/17 02:42:59;;;;;;;;;8.00;7.00;32.20;99.90;;;;;;5059363;28;8873;-63
2022/07/17 02:45:29;;;;;;;;;4.40;4.20;32.20;99.90;;;;;;5064433;28;8849;-59
2022/07/17 02:48:00;;;;;;;;;7.60;7.00;32.00;99.90;;;;;;5052200;28;8874;-65
2022/07/17 02:50:32;;;;;;;;;7.40;5.60;31.50;99.90;;;;;;5056622;28;8878;-61
2022/07/17 02:53:02;;;;;;;;;7.80;5.20;31.60;99.90;;;;;;5055602;28;8857;-63
2022/07/17 02:55:33;;;;;;;;;9.40;7.00;31.60;99.90;;;;;;5060418;28;8840;-63
2022/07/17 02:58:05;;;;;;;;;10.40;7.40;31.60;99.90;;;;;;5058423;28;8848;-62
2022/07/17 03:00:36;;;;;;;;;8.20;7.60;31.70;99.90;;;;;;5056978;28;9565;-62
2022/07/17 03:03:09;;;;;;;;;10.20;7.60;31.70;99.90;;;;;;5060508;28;8860;-62
2022/07/17 03:05:39;;;;;;;;;11.60;8.00;31.70;99.90;;;;;;5065080;28;8876;-62
2022/07/17 03:08:14;;;;;;;;;10.60;8.00;31.70;99.90;;;;;;5065664;28;8851;-63
2022/07/17 03:10:44;;;;;;;;;9.40;5.60;31.60;99.90;;;;;;5058990;28;9596;-62
2022/07/17 03:13:16;;;;;;;;;11.80;7.00;31.40;99.90;;;;;;5052824;28;9542;-62
2022/07/17 03:15:48;;;;;;;;;9.20;8.60;31.40;99.90;;;;;;5055278;28;8875;-61
2022/07/17 03:18:19;;;;;;;;;10.40;7.40;31.40;99.90;;;;;;5055197;28;8894;-63
2022/07/17 03:20:52;;;;;;;;;14.20;7.60;31.40;99.90;;;;;;5031981;28;8868;-62
2022/07/17 03:23:23;;;;;;;;;7.60;6.20;31.40;99.90;;;;;;5061234;28;8840;-62
2022/07/17 03:25:57;;;;;;;;;9.40;8.60;31.40;99.90;;;;;;5060720;28;8867;-62
2022/07/17 03:28:27;;;;;;;;;9.00;7.40;31.40;99.90;;;;;;5060379;28;8836;-61
2022/07/17 03:30:57;;;;;;;;;9.40;7.00;31.40;99.90;;;;;;5062242;28;9535;-62
2022/07/17 03:33:30;;;;;;;;;12.60;8.60;31.40;99.90;;;;;;5059571;28;8874;-63
2022/07/17 03:36:00;;;;;;;;;9.40;9.40;31.20;99.90;;;;;;5060623;28;8882;-62
2022/07/17 03:38:32;;;;;;;;;12.40;7.40;31.20;99.90;;;;;;5063177;28;8828;-61
2022/07/17 03:41:06;;;;;;;;;10.00;6.20;31.10;99.90;;;;;;5059423;28;9616;-62
2022/07/17 03:43:39;;;;;;;;;12.40;11.20;31.10;99.90;;;;;;5062824;28;8848;-62
2022/07/17 03:46:10;;;;;;;;;11.20;7.80;31.10;99.90;;;;;;5057718;28;8824;-62
2022/07/17 03:48:42;;;;;;;;;12.80;7.80;31.00;99.90;;;;;;5060929;28;8897;-61
2022/07/17 03:51:13;;;;;;;;;10.20;7.20;30.90;99.90;;;;;;5059523;28;8835;-62
2022/07/17 03:53:43;;;;;;;;;12.40;10.80;30.90;99.90;;;;;;5056077;28;8903;-62
2022/07/17 03:56:15;;;;;;;;;9.20;8.20;30.80;99.90;;;;;;5061383;28;8866;-61
2022/07/17 03:58:47;;;;;;;;;3.00;0.80;30.80;99.90;;;;;;5062771;28;8824;-61
2022/07/17 04:01:17;;;;;;;;;11.80;8.40;30.70;99.90;;;;;;5057918;28;8834;-60
2022/07/17 04:03:48;;;;;;;;;9.20;5.80;30.70;99.90;;;;;;5063153;28;8850;-62
2022/07/17 04:06:20;;;;;;;;;7.20;7.00;30.70;99.90;;;;;;5060401;28;8847;-63
2022/07/17 04:08:50;;;;;;;;;10.20;7.00;30.60;99.90;;;;;;5054392;28;8832;-63
2022/07/17 04:11:21;;;;;;;;;9.40;7.20;30.60;99.90;;;;;;5052345;28;8879;-61
2022/07/17 04:13:52;;;;;;;;;10.20;6.40;30.50;99.90;;;;;;5065215;28;8875;-61
2022/07/17 04:16:22;;;;;;;;;10.20;9.60;30.50;99.90;;;;;;5063072;28;8860;-60
2022/07/17 04:18:53;;;;;;;;;12.60;7.20;30.40;99.90;;;;;;5054173;28;9526;-61
2022/07/17 04:21:23;;;;;;;;;9.20;7.60;30.40;99.90;;;;;;5061165;28;8834;-61
2022/07/17 04:23:55;;;;;;;;;8.60;7.20;30.40;99.90;;;;;;5058282;28;8882;-61
2022/07/17 04:26:25;;;;;;;;;13.20;8.60;30.40;99.90;;;;;;5061308;28;9553;-61
2022/07/17 04:29:01;;;;;;;;;9.00;7.20;30.20;99.90;;;;;;5054601;28;8856;-61
2022/07/17 04:31:38;;;;;;;;;13.60;9.00;30.20;99.90;;;;;;5060731;28;8861;-60
2022/07/17 04:34:07;;;;;;;;;8.00;7.80;30.10;99.90;;;;;;5054537;28;8872;-60
2022/07/17 04:36:40;;;;;;;;;7.60;5.20;30.10;99.90;;;;;;5056476;28;8863;-61
2022/07/17 04:39:12;;;;;;;;;7.20;7.00;30.00;99.90;;;;;;5061963;28;9542;-61
2022/07/17 04:41:43;;;;;;;;;12.80;9.60;30.10;99.90;;;;;;5058845;28;8824;-60
2022/07/17 04:44:18;;;;;;;;;3.80;1.80;30.00;99.90;;;;;;5057338;28;8902;-60
2022/07/17 04:46:48;;;;;;;;;9.20;6.40;29.90;99.90;;;;;;5055744;28;8868;-61
2022/07/17 04:49:18;;;;;;;;;10.80;9.80;29.90;99.90;;;;;;5057267;28;8840;-61
2022/07/17 04:51:51;;;;;;;;;8.40;7.00;29.80;99.90;;;;;;5055144;28;8967;-61
2022/07/17 04:54:21;;;;;;;;;2.00;0.00;29.70;99.90;;;;;;5051746;28;8843;-61
2022/07/17 04:56:51;;;;;;;;;11.40;8.80;29.70;99.90;;;;;;5046946;28;8905;-63
2022/07/17 04:59:22;;;;;;;;;9.40;7.40;29.80;99.90;;;;;;5054250;28;8862;-64
2022/07/17 05:01:57;;;;;;;;;10.80;7.20;29.60;99.90;;;;;;5061381;28;8860;-61
2022/07/17 05:04:30;;;;;;;;;11.80;8.80;29.70;99.90;;;;;;5057809;28;9494;-60
2022/07/17 05:07:00;;;;;;;;;10.80;8.60;29.70;99.90;;;;;;5056539;28;8843;-61
2022/07/17 05:09:31;;;;;;;;;9.80;6.00;29.60;99.90;;;;;;5057868;28;8979;-60
2022/07/17 05:12:02;;;;;;;;;6.40;5.20;29.70;99.90;;;;;;5057172;28;8842;-60
2022/07/17 05:14:33;;;;;;;;;9.00;7.60;29.60;99.90;;;;;;5057058;28;8842;-62
2022/07/17 05:17:03;;;;;;;;;9.80;8.00;29.50;99.90;;;;;;5057508;28;8860;-63
2022/07/17 05:19:36;;;;;;;;;5.80;5.80;29.50;99.90;;;;;;5061293;28;8836;-63
2022/07/17 05:22:06;;;;;;;;;6.80;5.20;29.50;99.90;;;;;;5062043;28;8836;-60
2022/07/17 05:24:40;;;;;;;;;11.00;8.00;29.40;99.90;;;;;;5057469;28;8836;-61
2022/07/17 05:27:11;;;;;;;;;8.00;7.00;29.40;99.90;;;;;;5058410;28;8875;-63
2022/07/17 05:29:43;;;;;;;;;13.40;8.80;29.30;99.90;;;;;;5061059;28;8863;-64
2022/07/17 05:32:16;;;;;;;;;13.40;11.40;29.30;99.90;;;;;;5057994;28;8881;-61
2022/07/17 05:34:48;;;;;;;;;12.00;8.60;29.20;99.90;;;;;;5052311;28;8853;-60
2022/07/17 05:37:22;;;;;;;;;14.60;9.00;29.10;99.90;;;;;;5054995;28;8904;-61
2022/07/17 05:39:52;;;;;;;;;9.20;7.00;29.00;99.90;;;;;;5058877;28;8847;-61
2022/07/17 05:42:21;;;;;;;;;8.80;7.00;29.00;99.90;;;;;;5055351;28;9511;-63
2022/07/17 05:44:51;;;;;;;;;13.60;10.40;29.10;99.90;;;;;;5058335;28;8891;-61
2022/07/17 05:47:21;;;;;;;;;7.00;7.00;29.00;99.90;;;;;;5054441;28;8842;-64
2022/07/17 05:49:53;;;;;;;;;9.60;9.60;28.90;99.90;;;;;;5060590;28;8832;-63
2022/07/17 05:52:24;;;;;;;;;8.20;6.40;28.90;99.90;;;;;;5061188;28;8836;-60
2022/07/17 05:54:54;;;;;;;;;9.80;8.20;28.90;99.90;;;;;;5058940;28;10001;-61
2022/07/17 05:57:27;;;;;;;;;7.80;6.60;28.90;99.90;;;;;;5058047;28;8879;-59
2022/07/17 05:59:57;;;;;;;;;5.00;4.80;28.80;99.90;;;;;;5058245;28;8862;-61
2022/07/17 06:02:27;;;;;;;;;1.40;1.00;28.70;99.90;;;;;;5055538;28;8941;-63
2022/07/17 06:04:57;;;;;;;;;9.00;7.60;28.60;99.90;;;;;;5058446;28;8844;-64
2022/07/17 06:07:28;;;;;;;;;6.00;6.00;28.60;99.90;;;;;;5060692;28;8876;-61
2022/07/17 06:09:59;;;;;;;;;7.80;7.00;28.60;99.90;;;;;;5059766;28;8844;-60
2022/07/17 06:12:29;;;;;;;;;4.80;4.20;28.50;99.90;;;;;;5060141;28;8942;-60
2022/07/17 06:14:59;;;;;;;;;6.00;6.00;28.50;99.90;;;;;;5064480;28;8839;-61
2022/07/17 06:17:31;;;;;;;;;9.20;7.80;28.60;99.90;;;;;;5062532;28;8901;-63
2022/07/17 06:20:00;;;;;;;;;7.00;7.00;28.60;99.90;;;;;;5062658;28;8856;-62
2022/07/17 06:22:34;;;;;;;;;10.80;9.20;28.60;99.90;;;;;;5061236;28;8844;-62
2022/07/17 06:25:05;;;;;;;;;12.60;10.80;28.50;99.90;;;;;;5064485;28;8871;-63
2022/07/17 06:27:40;;;;;;;;;8.80;8.20;28.40;99.90;;;;;;5053062;28;8995;-60
2022/07/17 06:30:14;;;;;;;;;8.00;6.20;28.40;99.90;;;;;;5054577;28;8870;-61
2022/07/17 06:32:47;;;;;;;;;10.60;10.60;28.30;99.90;;;;;;5050561;28;8889;-61
2022/07/17 06:35:19;;;;;;;;;9.00;7.40;28.20;99.90;;;;;;5064863;28;8860;-61
2022/07/17 06:37:50;;;;;;;;;10.40;9.00;28.20;99.90;;;;;;5063455;28;9573;-60
2022/07/17 06:40:20;;;;;;;;;9.40;8.40;28.10;99.90;;;;;;5061143;28;8861;-60
2022/07/17 06:42:50;;;;;;;;;7.60;7.60;28.10;99.90;;;;;;5063084;28;8864;-63
2022/07/17 06:45:25;;;;;;;;;8.00;8.00;28.10;99.90;;;;;;5064986;28;8867;-63
2022/07/17 06:47:55;;;;;;;;;8.20;7.60;28.10;99.90;;;;;;5045842;28;8843;-62
2022/07/17 06:50:25;;;;;;;;;13.40;9.60;28.00;99.90;;;;;;5060715;28;9552;-62
2022/07/17 06:52:58;;;;;;;;;8.20;7.60;27.90;99.90;;;;;;5060266;28;8839;-62
2022/07/17 06:55:28;;;;;;;;;10.60;8.40;27.90;99.90;;;;;;5061169;28;8840;-62
2022/07/17 06:57:58;;;;;;;;;11.00;8.40;28.00;99.90;;;;;;5061344;28;8852;-64
2022/07/17 07:00:30;;;;;;;;;9.40;9.40;27.90;99.90;;;;;;5057121;28;8832;-63
2022/07/17 07:03:03;;;;;;;;;9.60;8.20;27.80;99.90;;;;;;5057326;28;8832;-62
2022/07/17 07:05:35;;;;;;;;;4.60;4.40;27.80;99.90;;;;;;5063925;28;8851;-60
2022/07/17 07:08:05;;;;;;;;;9.00;9.00;27.80;99.90;;;;;;5060313;28;8910;-61
2022/07/17 07:10:38;;;;;;;;;6.60;6.60;27.70;99.90;;;;;;5057448;28;8860;-61
2022/07/17 07:13:08;;;;;;;;;8.00;8.00;27.70;99.90;;;;;;5058880;28;8816;-63
2022/07/17 07:15:40;;;;;;;;;12.20;8.00;27.70;99.90;;;;;;5063481;28;8867;-63
2022/07/17 07:18:10;;;;;;;;;11.00;7.60;27.60;99.90;;;;;;5057729;28;8866;-61
2022/07/17 07:20:40;;;;;;;;;11.60;8.60;27.60;99.90;;;;;;5057993;28;9867;-61
2022/07/17 07:23:11;;;;;;;;;12.40;7.20;27.60;99.90;;;;;;5063875;28;8851;-61
2022/07/17 07:25:43;;;;;;;;;7.60;7.60;27.60;99.90;;;;;;5060325;28;8879;-61
2022/07/17 07:28:17;;;;;;;;;7.00;7.00;27.50;99.90;;;;;;5064319;28;8859;-63
2022/07/17 07:30:47;;;;;;;;;8.80;7.20;27.50;99.90;;;;;;5065078;28;8840;-64
2022/07/17 07:33:18;;;;;;;;;1.40;1.20;27.50;99.90;;;;;;5057543;28;8843;-63
2022/07/17 07:35:49;;;;;;;;;11.40;9.60;27.50;99.90;;;;;;5060156;28;8842;-62
2022/07/17 07:38:19;;;;;;;;;10.00;8.60;27.50;99.90;;;;;;5059480;28;8880;-61
2022/07/17 07:40:51;;;;;;;;;10.60;9.80;27.40;99.90;;;;;;5054316;28;8870;-61
2022/07/17 07:43:23;;;;;;;;;8.40;6.20;27.40;99.90;;;;;;5061349;28;8868;-64
2022/07/17 07:45:58;;;;;;;;;9.40;8.00;27.40;99.90;;;;;;5062963;28;8856;-63
2022/07/17 07:48:31;;;;;;;;;9.80;8.80;27.40;99.90;;;;;;5056211;28;8932;-60
2022/07/17 07:51:01;;;;;;;;;8.60;8.60;27.40;99.90;;;;;;5056405;28;8873;-62
2022/07/17 07:53:32;;;;;;;;;11.20;9.00;27.30;99.90;;;;;;5050366;28;8854;-62
2022/07/17 07:56:04;;;;;;;;;8.40;7.40;27.40;99.90;;;;;;5059111;28;8840;-64
2022/07/17 07:58:38;;;;;;;;;14.75;11.75;27.40;99.90;;;;;;5060393;28;8827;-63
2022/07/17 08:01:08;;;;;;;;;12.00;9.25;27.30;99.90;;;;;;5054996;28;8845;-62
2022/07/17 08:03:41;;;;;;;;;7.20;7.20;27.30;99.90;;;;;;5056547;28;8855;-59
2022/07/17 08:06:14;;;;;;;;;9.60;7.40;27.30;99.90;;;;;;5047019;28;8872;-62
2022/07/17 08:08:45;;;;;;;;;13.00;9.25;27.30;99.90;;;;;;5057707;28;8859;-63
2022/07/17 08:11:15;;;;;;;;;8.50;5.75;27.20;99.90;;;;;;5043561;28;8879;-60
2022/07/17 08:13:46;;;;;;;;;10.00;8.50;27.20;99.90;;;;;;5064661;28;8827;-60
2022/07/17 08:16:18;;;;;;;;;7.20;7.20;27.20;99.90;;;;;;5058615;28;8854;-62
2022/07/17 08:18:50;;;;;;;;;7.60;6.60;27.20;99.90;;;;;;5051945;28;8897;-63
2022/07/17 08:21:22;;;;;;;;;12.80;9.80;27.20;99.90;;;;;;5056762;28;8850;-61
2022/07/17 08:23:53;;;;;;;;;3.60;2.20;27.20;99.90;;;;;;5056784;28;8852;-60
2022/07/17 08:26:23;;;;;;;;;8.20;7.00;27.20;99.90;;;;;;5058939;28;8942;-60
2022/07/17 08:28:55;;;;;;;;;8.20;7.00;27.20;99.90;;;;;;5064402;28;8869;-60
2022/07/17 08:31:25;;;;;;;;;9.00;9.00;27.20;99.90;;;;;;5057169;28;8836;-61
2022/07/17 08:33:56;;;;;;;;;8.80;8.60;27.20;99.90;;;;;;5059310;28;8844;-60
2022/07/17 08:36:27;;;;;;;;;11.50;7.25;27.00;99.90;;;;;;5056192;28;8943;-63
2022/07/17 08:38:59;;;;;;;;;10.20;8.80;27.00;99.90;;;;;;5055314;28;10003;-62
2022/07/17 08:41:30;;;;;;;;;12.00;9.50;27.00;99.90;;;;;;5058609;28;8853;-63
2022/07/17 08:44:01;;;;;;;;;6.00;5.75;27.00;99.90;;;;;;5060589;28;8839;-62
2022/07/17 08:46:33;;;;;;;;;8.20;8.00;27.00;99.90;;;;;;5054815;28;8874;-60
2022/07/17 08:49:08;;;;;;;;;8.50;6.75;27.00;99.90;;;;;;5061630;28;8847;-61
2022/07/17 08:51:38;;;;;;;;;14.00;11.50;26.90;99.90;;;;;;5061759;28;8862;-63
2022/07/17 08:54:16;;;;;;;;;11.25;10.25;26.90;99.90;;;;;;5058256;28;8886;-62
2022/07/17 08:56:47;;;;;;;;;10.00;9.00;26.80;99.90;;;;;;5060860;28;8879;-61
2022/07/17 08:59:22;;;;;;;;;8.75;7.75;26.90;99.90;;;;;;5054492;28;8901;-61
2022/07/17 09:01:57;;;;;;;;;8.50;8.50;26.90;99.90;;;;;;5060126;28;8836;-63
2022/07/17 09:04:28;;;;;;;;;12.50;9.75;26.80;99.90;;;;;;5061432;28;8824;-62
2022/07/17 09:07:01;;;;;;;;;12.75;9.25;26.80;99.90;;;;;;5061216;28;8860;-60
2022/07/17 09:09:35;;;;;;;;;10.00;8.00;26.80;99.90;;;;;;5057438;28;8870;-61
2022/07/17 09:12:14;;;;;;;;;9.00;7.50;26.80;99.90;;;;;;5055557;28;8842;-63
2022/07/17 09:14:48;;;;;;;;;9.00;8.50;26.70;99.90;;;;;;5051939;28;9584;-63
2022/07/17 09:17:20;;;;;;;;;8.00;8.00;26.80;99.90;;;;;;5052865;28;8844;-63
2022/07/17 09:19:49;;;;;;;;;7.50;7.50;26.70;99.90;;;;;;5058138;28;8868;-62
2022/07/17 09:22:26;;;;;;;;;9.00;9.00;26.70;99.90;;;;;;5061655;28;8850;-61
2022/07/17 09:24:59;;;;;;;;;8.00;8.00;26.70;99.90;;;;;;5059308;28;8848;-60
2022/07/17 09:27:31;;;;;;;;;7.60;7.60;26.60;99.90;;;;;;5058909;28;8868;-63
2022/07/17 09:30:03;;;;;;;;;7.25;7.25;26.70;99.90;;;;;;5055312;28;8832;-63
2022/07/17 09:32:38;;;;;;;;;7.25;2.25;26.70;99.90;;;;;;5060189;28;8848;-61
2022/07/17 09:35:11;;;;;;;;;11.00;10.00;26.60;99.90;;;;;;5060234;28;8895;-61
2022/07/17 09:37:41;;;;;;;;;10.25;8.75;26.60;99.90;;;;;;5058494;28;8824;-63
2022/07/17 09:43:02;;;;;;;;;12.25;9.00;26.50;99.90;;;;;;5054204;28;8867;-63
2022/07/17 09:45:35;;;;;;;;;7.00;7.00;26.50;99.90;;;;;;5059307;28;8850;-62
2022/07/17 09:48:10;;;;;;;;;9.50;8.00;26.50;99.90;;;;;;5062043;28;8848;-60
2022/07/17 09:50:43;;;;;;;;;13.25;11.25;26.50;99.90;;;;;;5058437;28;8867;-60
2022/07/17 09:53:17;;;;;;;;;9.25;9.25;26.40;99.90;;;;;;5065175;28;8859;-61
2022/07/17 09:55:47;;;;;;;;;7.75;7.75;26.40;99.90;;;;;;5048226;28;8890;-61
2022/07/17 09:58:25;;;;;;;;;6.75;6.50;26.40;99.90;;;;;;5059789;28;8840;-61
2022/07/17 10:00:55;;;;;;;;;11.50;10.00;26.40;99.90;;;;;;5055776;28;8863;-61
2022/07/17 10:03:29;;;;;;;;;11.75;11.75;26.30;99.90;;;;;;5051370;28;8850;-64
2022/07/17 10:06:02;;;;;;;;;7.50;5.50;26.30;99.90;;;;;;5064076;28;9546;-63
2022/07/17 10:08:33;;;;;;;;;10.50;9.25;26.40;99.90;;;;;;5059014;28;8843;-61
2022/07/17 10:11:09;;;;;;;;;11.50;11.25;26.30;99.90;;;;;;5057619;28;8836;-62
2022/07/17 10:13:41;;;;;;;;;10.50;9.00;26.30;99.90;;;;;;5060196;28;8902;-62
2022/07/17 10:16:14;;;;;;;;;7.75;6.50;26.30;99.90;;;;;;5062119;28;8840;-64
2022/07/17 10:18:45;;;;;;;;;11.00;9.25;26.30;99.90;;;;;;5069221;28;8863;-62
2022/07/17 10:21:18;;;;;;;;;11.00;10.00;26.30;99.90;;;;;;5062894;28;8922;-61
2022/07/17 10:24:08;;;;;;;;;11.00;11.00;26.30;99.90;;;;;;5061115;28;8836;-61
2022/07/17 10:26:38;;;;;;;;;10.50;10.00;26.20;99.90;;;;;;5059082;28;9846;-61
2022/07/17 10:29:25;;;;;;;;;13.00;10.00;26.20;99.90;;;;;;5059961;28;8869;-62
2022/07/17 10:31:57;;;;;;;;;11.00;8.50;26.20;99.90;;;;;;5063316;28;9588;-63
2022/07/17 10:34:49;;;;;;;;;14.25;12.50;26.20;99.90;;;;;;5064227;28;8831;-63
2022/07/17 10:37:26;;;;;;;;;11.25;8.50;26.20;99.90;;;;;;5055471;28;8844;-60
2022/07/17 10:40:07;;;;;;;;;10.50;9.00;26.20;99.90;;;;;;5058941;28;8843;-61
2022/07/17 10:42:51;;;;;;;;;9.75;8.25;26.20;99.90;;;;;;5064143;28;8962;-61
2022/07/17 10:45:45;;;;;;;;;8.50;7.00;26.10;99.90;;;;;;5058174;28;8854;-60
2022/07/17 10:48:19;;;;;;;;;7.75;7.75;26.10;99.90;;;;;;5059075;28;8866;-63
2022/07/17 10:50:58;;;;;;;;;11.00;9.50;26.10;99.90;;;;;;5057598;28;8816;-63
2022/07/17 10:53:33;;;;;;;;;6.50;6.50;26.10;99.90;;;;;;5066169;28;8883;-61
2022/07/17 10:56:08;;;;;;;;;9.25;8.00;26.10;99.90;;;;;;5065500;28;8824;-60
2022/07/17 10:58:41;;;;;;;;;10.75;8.25;26.00;99.90;;;;;;5057390;28;8835;-63
2022/07/17 11:01:18;;;;;;;;;10.50;8.25;26.00;99.90;;;;;;5063389;28;8850;-63
2022/07/17 11:03:59;;;;;;;;;13.00;11.25;26.00;99.90;;;;;;5057861;28;8899;-63
2022/07/17 11:06:37;;;;;;;;;12.75;12.75;26.00;99.90;;;;;;5055055;28;8847;-63
2022/07/17 11:09:12;;;;;;;;;9.75;9.00;26.00;99.90;;;;;;5058812;28;9647;-62
2022/07/17 11:11:47;;;;;;;;;8.00;7.00;26.00;99.90;;;;;;5060535;28;8848;-61
2022/07/17 11:14:28;;;;;;;;;13.50;9.75;26.00;99.90;;;;;;5048028;28;8880;-61
2022/07/17 11:17:00;;;;;;;;;11.00;10.50;25.90;99.90;;;;;;5062292;28;8856;-61
2022/07/17 11:19:36;;;;;;;;;11.00;8.00;25.90;99.90;;;;;;5059705;28;8881;-60
2022/07/17 11:22:11;;;;;;;;;12.75;10.75;25.80;99.90;;;;;;5054386;28;8844;-62
2022/07/17 11:24:42;;;;;;;;;10.50;9.00;25.80;99.90;;;;;;5065335;28;8855;-62
2022/07/17 11:27:33;;;;;;;;;10.75;10.50;25.70;99.90;;;;;;5062695;28;8918;-65
2022/07/17 11:30:06;;;;;;;;;9.00;8.75;25.80;99.90;;;;;;5061505;28;8864;-63
2022/07/17 11:32:40;;;;;;;;;11.00;11.00;25.70;99.90;;;;;;5061534;28;8858;-63
2022/07/17 11:35:24;;;;;;;;;8.50;8.50;25.70;99.90;;;;;;5062240;28;8843;-63
2022/07/17 11:38:12;;;;;;;;;12.75;10.25;25.70;99.90;;;;;;5053348;28;8836;-60
2022/07/17 11:40:51;;;;;;;;;9.75;7.50;25.70;99.90;;;;;;5061477;28;9518;-60
2022/07/17 11:43:38;;;;;;;;;5.75;5.75;25.60;99.90;;;;;;5064067;28;8860;-60
2022/07/17 11:46:11;;;;;;;;;11.50;9.00;25.60;99.90;;;;;;5063307;28;8878;-60
2022/07/17 11:48:45;;;;;;;;;8.75;8.75;25.60;99.90;;;;;;5056920;28;8833;-62
2022/07/17 11:51:18;;;;;;;;;11.75;10.25;25.60;99.90;;;;;;5056602;28;8863;-61
2022/07/17 11:53:51;;;;;;;;;17.75;13.25;25.50;99.90;;;;;;5063611;28;8848;-61
2022/07/17 11:56:22;;;;;;;;;11.00;10.00;25.50;99.90;;;;;;5057270;28;8844;-63
2022/07/17 11:58:55;;;;;;;;;10.00;9.25;25.50;99.90;;;;;;5058584;28;8890;-63
2022/07/17 12:02:09;;;;;;;;;8.50;8.50;25.50;99.90;;;;;;5058096;28;8820;-64
2022/07/17 12:05:01;;;;;;;;;13.25;9.50;25.50;99.90;;;;;;5059806;28;8875;-63
2022/07/17 12:07:48;;;;;;;;;8.50;8.50;25.50;99.90;;;;;;5055235;28;8917;-60
2022/07/17 12:10:24;;;;;;;;;11.75;9.75;25.50;99.90;;;;;;5042108;28;8870;-61
2022/07/17 12:13:04;;;;;;;;;11.00;9.25;25.40;99.90;;;;;;5060498;28;8830;-63
2022/07/17 12:15:45;;;;;;;;;11.50;9.25;25.50;99.90;;;;;;5043498;28;8946;-63
2022/07/17 12:18:25;;;;;;;;;10.25;10.25;25.50;99.90;;;;;;5058348;28;9615;-61
2022/07/17 12:20:59;;;;;;;;;11.50;11.25;25.50;99.90;;;;;;5061599;28;8836;-61
2022/07/17 12:23:39;;;;;;;;;9.50;8.25;25.60;99.90;;;;;;5067004;28;8831;-61
2022/07/17 12:26:19;;;;;;;;;11.25;11.00;25.50;99.90;;;;;;5054595;28;8839;-61
2022/07/17 12:28:49;;;;;;;;;7.00;7.00;25.60;99.90;;;;;;5048310;28;8872;-61
2022/07/17 12:31:20;;;;;;;;;12.00;10.00;25.60;99.90;;;;;;5058332;28;8856;-60
2022/07/17 12:33:51;;;;;;;;;8.75;8.75;25.70;99.90;;;;;;5055532;28;8858;-57
2022/07/17 12:36:25;;;;;;;;;9.75;9.75;25.70;99.90;;;;;;5063770;28;8840;-61
2022/07/17 12:38:57;;;;;;;;;10.00;8.00;25.60;99.90;;;;;;5062672;28;8894;-60
2022/07/17 12:41:28;;;;;;;;;7.50;6.50;25.70;99.90;;;;;;5063995;28;8868;-60
2022/07/17 12:43:58;;;;;;;;;8.00;7.00;25.80;99.90;;;;;;5060662;28;8859;-59
2022/07/17 12:46:30;;;;;;;;;10.25;9.50;25.80;99.90;;;;;;5062468;28;8844;-60
2022/07/17 12:49:01;;;;;;;;;8.75;7.50;25.90;99.90;;;;;;5062810;28;8832;-60
2022/07/17 12:51:31;;;;;;;;;12.00;9.00;25.90;99.90;;;;;;5035115;28;8836;-63
2022/07/17 12:54:01;;;;;;;;;13.25;7.50;26.00;99.90;;;;;;5059349;28;8834;-62
2022/07/17 12:56:33;;;;;;;;;13.50;11.00;25.90;99.90;;;;;;5060065;28;8840;-61
2022/07/17 12:59:04;;;;;;;;;9.25;8.75;26.00;99.90;;;;;;5058324;28;8884;-60
2022/07/17 13:01:37;;;;;;;;;10.00;9.25;26.00;99.90;;;;;;5053029;28;8845;-62
2022/07/17 13:04:08;;;;;;;;;14.00;12.25;26.10;99.90;;;;;;5050832;28;9455;-58
2022/07/17 13:06:39;;;;;;;;;13.00;11.75;26.10;99.90;;;;;;5059629;28;8858;-58
2022/07/17 13:09:09;;;;;;;;;7.75;7.50;26.20;99.90;;;;;;5052821;28;8885;-59
2022/07/17 13:11:43;;;;;;;;;10.50;10.25;26.20;99.90;;;;;;5055012;28;9584;-61
2022/07/17 13:14:16;;;;;;;;;9.25;8.00;26.30;99.90;;;;;;5054280;28;8874;-59
2022/07/17 13:16:47;;;;;;;;;11.75;9.00;26.40;99.90;;;;;;5059538;28;8858;-60
2022/07/17 13:19:19;;;;;;;;;7.50;7.50;26.50;99.90;;;;;;5054304;28;8839;-60
2022/07/17 13:21:55;;;;;;;;;6.00;6.00;26.50;99.90;;;;;;5062329;28;8844;-58
2022/07/17 13:24:25;;;;;;;;;10.75;7.50;26.50;99.90;;;;;;5060522;28;8882;-58
2022/07/17 13:26:54;;;;;;;;;8.00;7.20;26.70;99.90;;;;;;5059416;28;9538;-61